sensor_id;sensor_type;location;lat;lon;timestamp;P1;durP1;ratioP1;P2;durP2;ratioP2
11964;SDS011;6042;41.326;19.826;2022-12-29T00:01:11;18.00;;;14.27;;
11964;SDS011;6042;41.326;19.826;2022-12-29T00:03:39;21.03;;;16.13;;
11964;SDS011;6042;41.326;19.826;2022-12-29T00:06:10;19.47;;;15.20;;
11964;SDS011;6042;41.326;19.826;2022-12-29T00:08:38;23.67;;;14.67;;
11964;SDS011;6042;41.326;19.826;2022-12-29T00:11:07;22.10;;;14.63;;
11964;SDS011;6042;41.326;19.826;2022-12-29T00:13:37;20.07;;;13.80;;
11964;SDS011;6042;41.326;19.826;2022-12-29T00:16:23;17.87;;;12.77;;
11964;SDS011;6042;41.326;19.826;2022-12-29T00:18:52;17.97;;;13.77;;
11964;SDS011;6042;41.326;19.826;2022-12-29T00:21:23;15.23;;;13.10;;
11964;SDS011;6042;41.326;19.826;2022-12-29T00:24:12;23.57;;;15.07;;
11964;SDS011;6042;41.326;19.826;2022-12-29T00:27:08;25.70;;;14.87;;
11964;SDS011;6042;41.326;19.826;2022-12-29T00:29:56;53.80;;;37.93;;
11964;SDS011;6042;41.326;19.826;2022-12-29T00:32:43;15.73;;;13.80;;
11964;SDS011;6042;41.326;19.826;2022-12-29T00:35:30;14.27;;;11.57;;
11964;SDS011;6042;41.326;19.826;2022-12-29T00:38:04;21.17;;;12.70;;
11964;SDS011;6042;41.326;19.826;2022-12-29T00:40:53;17.10;;;11.57;;
11964;SDS011;6042;41.326;19.826;2022-12-29T00:43:39;18.20;;;12.47;;
11964;SDS011;6042;41.326;19.826;2022-12-29T00:46:26;22.43;;;13.00;;
11964;SDS011;6042;41.326;19.826;2022-12-29T00:48:55;15.97;;;11.50;;
11964;SDS011;6042;41.326;19.826;2022-12-29T00:51:43;12.87;;;11.57;;
11964;SDS011;6042;41.326;19.826;2022-12-29T00:54:13;18.37;;;13.07;;
11964;SDS011;6042;41.326;19.826;2022-12-29T00:56:45;16.43;;;13.87;;
11964;SDS011;6042;41.326;19.826;2022-12-29T00:59:15;18.90;;;13.50;;
11964;SDS011;6042;41.326;19.826;2022-12-29T01:01:45;18.10;;;13.37;;
11964;SDS011;6042;41.326;19.826;2022-12-29T01:04:14;17.90;;;13.83;;
11964;SDS011;6042;41.326;19.826;2022-12-29T01:06:43;14.77;;;13.03;;
11964;SDS011;6042;41.326;19.826;2022-12-29T01:09:16;17.33;;;13.10;;
11964;SDS011;6042;41.326;19.826;2022-12-29T01:12:03;15.37;;;12.40;;
11964;SDS011;6042;41.326;19.826;2022-12-29T01:14:33;15.70;;;12.47;;
11964;SDS011;6042;41.326;19.826;2022-12-29T01:17:02;15.37;;;13.03;;
11964;SDS011;6042;41.326;19.826;2022-12-29T01:19:31;15.93;;;12.20;;
11964;SDS011;6042;41.326;19.826;2022-12-29T01:22:00;16.20;;;11.90;;
11964;SDS011;6042;41.326;19.826;2022-12-29T01:24:30;14.57;;;12.37;;
11964;SDS011;6042;41.326;19.826;2022-12-29T01:26:58;14.03;;;11.27;;
11964;SDS011;6042;41.326;19.826;2022-12-29T01:29:27;14.03;;;11.03;;
11964;SDS011;6042;41.326;19.826;2022-12-29T01:31:56;13.67;;;11.43;;
11964;SDS011;6042;41.326;19.826;2022-12-29T01:34:25;16.90;;;11.03;;
11964;SDS011;6042;41.326;19.826;2022-12-29T01:36:53;13.40;;;10.53;;
11964;SDS011;6042;41.326;19.826;2022-12-29T01:39:22;11.97;;;10.60;;
11964;SDS011;6042;41.326;19.826;2022-12-29T01:41:51;11.60;;;9.77;;
11964;SDS011;6042;41.326;19.826;2022-12-29T01:47:21;10.43;;;9.40;;
11964;SDS011;6042;41.326;19.826;2022-12-29T01:49:58;12.10;;;9.33;;
11964;SDS011;6042;41.326;19.826;2022-12-29T01:52:29;10.47;;;8.80;;
11964;SDS011;6042;41.326;19.826;2022-12-29T01:55:01;11.87;;;9.83;;
11964;SDS011;6042;41.326;19.826;2022-12-29T01:57:33;10.10;;;9.00;;
11964;SDS011;6042;41.326;19.826;2022-12-29T02:00:05;32.27;;;11.63;;
11964;SDS011;6042;41.326;19.826;2022-12-29T02:02:39;11.33;;;9.20;;
11964;SDS011;6042;41.326;19.826;2022-12-29T02:05:13;12.60;;;9.17;;
11964;SDS011;6042;41.326;19.826;2022-12-29T02:07:46;13.90;;;8.97;;
11964;SDS011;6042;41.326;19.826;2022-12-29T02:10:16;11.37;;;8.50;;
11964;SDS011;6042;41.326;19.826;2022-12-29T02:12:48;11.73;;;7.80;;
11964;SDS011;6042;41.326;19.826;2022-12-29T02:15:16;9.53;;;8.43;;
11964;SDS011;6042;41.326;19.826;2022-12-29T02:17:53;10.87;;;8.47;;
11964;SDS011;6042;41.326;19.826;2022-12-29T02:23:44;10.97;;;8.83;;
11964;SDS011;6042;41.326;19.826;2022-12-29T02:26:35;10.43;;;8.17;;
11964;SDS011;6042;41.326;19.826;2022-12-29T02:29:28;12.07;;;8.33;;
11964;SDS011;6042;41.326;19.826;2022-12-29T02:32:24;15.20;;;8.00;;
11964;SDS011;6042;41.326;19.826;2022-12-29T02:35:01;9.70;;;8.23;;
11964;SDS011;6042;41.326;19.826;2022-12-29T02:37:40;10.47;;;8.40;;
11964;SDS011;6042;41.326;19.826;2022-12-29T02:40:17;9.83;;;8.23;;
11964;SDS011;6042;41.326;19.826;2022-12-29T02:42:55;9.57;;;8.20;;
11964;SDS011;6042;41.326;19.826;2022-12-29T02:45:31;10.30;;;7.93;;
11964;SDS011;6042;41.326;19.826;2022-12-29T02:48:08;9.00;;;8.20;;
11964;SDS011;6042;41.326;19.826;2022-12-29T02:50:45;9.90;;;8.20;;
11964;SDS011;6042;41.326;19.826;2022-12-29T02:53:19;12.73;;;8.03;;
11964;SDS011;6042;41.326;19.826;2022-12-29T02:56:09;9.60;;;7.97;;
11964;SDS011;6042;41.326;19.826;2022-12-29T02:58:37;8.47;;;7.50;;
11964;SDS011;6042;41.326;19.826;2022-12-29T03:01:10;9.87;;;7.63;;
11964;SDS011;6042;41.326;19.826;2022-12-29T03:03:58;9.43;;;7.73;;
11964;SDS011;6042;41.326;19.826;2022-12-29T03:06:41;10.23;;;7.43;;
11964;SDS011;6042;41.326;19.826;2022-12-29T03:09:24;8.77;;;7.07;;
11964;SDS011;6042;41.326;19.826;2022-12-29T03:12:03;10.07;;;7.27;;
11964;SDS011;6042;41.326;19.826;2022-12-29T03:17:48;10.00;;;6.57;;
11964;SDS011;6042;41.326;19.826;2022-12-29T03:20:26;8.83;;;7.07;;
11964;SDS011;6042;41.326;19.826;2022-12-29T03:23:05;8.60;;;7.70;;
11964;SDS011;6042;41.326;19.826;2022-12-29T03:25:35;9.20;;;7.13;;
11964;SDS011;6042;41.326;19.826;2022-12-29T03:28:11;7.90;;;6.80;;
11964;SDS011;6042;41.326;19.826;2022-12-29T03:30:45;8.70;;;7.23;;
11964;SDS011;6042;41.326;19.826;2022-12-29T03:33:18;8.23;;;6.60;;
11964;SDS011;6042;41.326;19.826;2022-12-29T03:35:54;8.47;;;7.07;;
11964;SDS011;6042;41.326;19.826;2022-12-29T03:38:30;8.03;;;6.57;;
11964;SDS011;6042;41.326;19.826;2022-12-29T03:41:04;7.90;;;6.73;;
11964;SDS011;6042;41.326;19.826;2022-12-29T03:43:36;7.00;;;6.30;;
11964;SDS011;6042;41.326;19.826;2022-12-29T03:46:04;10.20;;;6.70;;
11964;SDS011;6042;41.326;19.826;2022-12-29T03:48:34;7.07;;;6.37;;
11964;SDS011;6042;41.326;19.826;2022-12-29T03:51:04;6.30;;;5.70;;
11964;SDS011;6042;41.326;19.826;2022-12-29T03:53:33;9.10;;;6.17;;
11964;SDS011;6042;41.326;19.826;2022-12-29T03:56:02;7.17;;;6.43;;
11964;SDS011;6042;41.326;19.826;2022-12-29T03:58:32;6.93;;;6.23;;
11964;SDS011;6042;41.326;19.826;2022-12-29T04:01:18;11.03;;;6.47;;
11964;SDS011;6042;41.326;19.826;2022-12-29T04:03:47;7.60;;;6.53;;
11964;SDS011;6042;41.326;19.826;2022-12-29T04:06:17;7.93;;;6.13;;
11964;SDS011;6042;41.326;19.826;2022-12-29T04:08:51;8.10;;;6.13;;
11964;SDS011;6042;41.326;19.826;2022-12-29T04:11:22;9.87;;;6.40;;
11964;SDS011;6042;41.326;19.826;2022-12-29T04:13:59;8.53;;;6.70;;
11964;SDS011;6042;41.326;19.826;2022-12-29T04:16:29;10.20;;;6.77;;
11964;SDS011;6042;41.326;19.826;2022-12-29T04:18:59;10.83;;;6.43;;
11964;SDS011;6042;41.326;19.826;2022-12-29T04:21:29;8.20;;;6.47;;
11964;SDS011;6042;41.326;19.826;2022-12-29T04:23:58;7.70;;;6.90;;
11964;SDS011;6042;41.326;19.826;2022-12-29T04:26:26;7.63;;;6.80;;
11964;SDS011;6042;41.326;19.826;2022-12-29T04:29:18;8.87;;;6.67;;
11964;SDS011;6042;41.326;19.826;2022-12-29T04:32:23;9.20;;;6.93;;
11964;SDS011;6042;41.326;19.826;2022-12-29T04:34:53;7.47;;;6.73;;
11964;SDS011;6042;41.326;19.826;2022-12-29T04:37:23;9.00;;;6.80;;
11964;SDS011;6042;41.326;19.826;2022-12-29T04:39:52;8.03;;;6.53;;
11964;SDS011;6042;41.326;19.826;2022-12-29T04:42:20;9.30;;;6.83;;
11964;SDS011;6042;41.326;19.826;2022-12-29T04:44:50;10.53;;;7.50;;
11964;SDS011;6042;41.326;19.826;2022-12-29T04:47:35;10.80;;;7.00;;
11964;SDS011;6042;41.326;19.826;2022-12-29T04:50:41;7.20;;;6.50;;
11964;SDS011;6042;41.326;19.826;2022-12-29T04:53:17;10.60;;;6.30;;
11964;SDS011;6042;41.326;19.826;2022-12-29T04:55:48;9.03;;;6.07;;
11964;SDS011;6042;41.326;19.826;2022-12-29T04:58:17;8.20;;;6.07;;
11964;SDS011;6042;41.326;19.826;2022-12-29T05:00:50;6.40;;;5.80;;
11964;SDS011;6042;41.326;19.826;2022-12-29T05:03:24;7.80;;;5.83;;
11964;SDS011;6042;41.326;19.826;2022-12-29T05:05:53;7.00;;;5.43;;
11964;SDS011;6042;41.326;19.826;2022-12-29T05:08:24;9.33;;;6.00;;
11964;SDS011;6042;41.326;19.826;2022-12-29T05:10:58;8.43;;;6.37;;
11964;SDS011;6042;41.326;19.826;2022-12-29T05:13:26;9.40;;;5.97;;
11964;SDS011;6042;41.326;19.826;2022-12-29T05:15:56;9.07;;;5.43;;
11964;SDS011;6042;41.326;19.826;2022-12-29T05:18:26;7.10;;;6.00;;
11964;SDS011;6042;41.326;19.826;2022-12-29T05:20:57;9.77;;;6.30;;
11964;SDS011;6042;41.326;19.826;2022-12-29T05:23:28;8.07;;;5.80;;
11964;SDS011;6042;41.326;19.826;2022-12-29T05:26:03;6.20;;;5.43;;
11964;SDS011;6042;41.326;19.826;2022-12-29T05:29:10;7.17;;;5.67;;
11964;SDS011;6042;41.326;19.826;2022-12-29T05:31:38;7.03;;;5.47;;
11964;SDS011;6042;41.326;19.826;2022-12-29T05:34:09;7.10;;;5.77;;
11964;SDS011;6042;41.326;19.826;2022-12-29T05:36:39;11.77;;;5.90;;
11964;SDS011;6042;41.326;19.826;2022-12-29T05:39:12;6.03;;;5.43;;
11964;SDS011;6042;41.326;19.826;2022-12-29T05:41:43;8.20;;;5.77;;
11964;SDS011;6042;41.326;19.826;2022-12-29T05:44:11;11.47;;;6.50;;
11964;SDS011;6042;41.326;19.826;2022-12-29T05:46:43;7.10;;;5.97;;
11964;SDS011;6042;41.326;19.826;2022-12-29T05:49:30;11.37;;;5.83;;
11964;SDS011;6042;41.326;19.826;2022-12-29T05:52:18;10.87;;;6.27;;
11964;SDS011;6042;41.326;19.826;2022-12-29T05:54:49;8.73;;;6.00;;
11964;SDS011;6042;41.326;19.826;2022-12-29T05:57:20;6.70;;;5.67;;
11964;SDS011;6042;41.326;19.826;2022-12-29T05:59:58;19.03;;;7.70;;
11964;SDS011;6042;41.326;19.826;2022-12-29T06:02:28;13.57;;;6.33;;
11964;SDS011;6042;41.326;19.826;2022-12-29T06:04:57;5.77;;;4.87;;
11964;SDS011;6042;41.326;19.826;2022-12-29T06:07:26;7.43;;;5.40;;
11964;SDS011;6042;41.326;19.826;2022-12-29T06:09:56;10.03;;;5.50;;
11964;SDS011;6042;41.326;19.826;2022-12-29T06:12:26;11.33;;;5.67;;
11964;SDS011;6042;41.326;19.826;2022-12-29T06:14:55;7.23;;;5.30;;
11964;SDS011;6042;41.326;19.826;2022-12-29T06:17:24;9.73;;;5.87;;
11964;SDS011;6042;41.326;19.826;2022-12-29T06:19:53;17.40;;;6.50;;
11964;SDS011;6042;41.326;19.826;2022-12-29T06:22:22;11.80;;;5.97;;
11964;SDS011;6042;41.326;19.826;2022-12-29T06:24:50;11.97;;;5.80;;
11964;SDS011;6042;41.326;19.826;2022-12-29T06:27:20;9.47;;;5.03;;
11964;SDS011;6042;41.326;19.826;2022-12-29T06:29:51;8.43;;;5.67;;
11964;SDS011;6042;41.326;19.826;2022-12-29T06:32:19;6.67;;;5.30;;
11964;SDS011;6042;41.326;19.826;2022-12-29T06:34:51;9.20;;;7.00;;
11964;SDS011;6042;41.326;19.826;2022-12-29T06:37:20;15.00;;;7.73;;
11964;SDS011;6042;41.326;19.826;2022-12-29T06:39:48;27.73;;;9.57;;
11964;SDS011;6042;41.326;19.826;2022-12-29T06:42:20;15.10;;;8.40;;
11964;SDS011;6042;41.326;19.826;2022-12-29T06:45:08;15.13;;;8.70;;
11964;SDS011;6042;41.326;19.826;2022-12-29T06:47:37;16.77;;;8.80;;
11964;SDS011;6042;41.326;19.826;2022-12-29T06:50:06;15.63;;;7.83;;
11964;SDS011;6042;41.326;19.826;2022-12-29T06:52:35;10.87;;;7.50;;
11964;SDS011;6042;41.326;19.826;2022-12-29T06:55:03;15.53;;;6.60;;
11964;SDS011;6042;41.326;19.826;2022-12-29T06:57:34;10.13;;;6.47;;
11964;SDS011;6042;41.326;19.826;2022-12-29T07:00:03;9.23;;;6.20;;
11964;SDS011;6042;41.326;19.826;2022-12-29T07:02:32;10.50;;;6.13;;
11964;SDS011;6042;41.326;19.826;2022-12-29T07:05:01;10.77;;;5.90;;
11964;SDS011;6042;41.326;19.826;2022-12-29T07:07:29;11.53;;;6.33;;
11964;SDS011;6042;41.326;19.826;2022-12-29T07:09:58;12.33;;;5.73;;
11964;SDS011;6042;41.326;19.826;2022-12-29T07:12:26;8.53;;;6.20;;
11964;SDS011;6042;41.326;19.826;2022-12-29T07:14:56;9.27;;;6.10;;
11964;SDS011;6042;41.326;19.826;2022-12-29T07:17:25;11.57;;;5.47;;
11964;SDS011;6042;41.326;19.826;2022-12-29T07:19:53;15.53;;;5.90;;
11964;SDS011;6042;41.326;19.826;2022-12-29T07:22:22;11.17;;;5.47;;
11964;SDS011;6042;41.326;19.826;2022-12-29T07:24:50;17.63;;;6.10;;
11964;SDS011;6042;41.326;19.826;2022-12-29T07:27:19;12.13;;;6.93;;
11964;SDS011;6042;41.326;19.826;2022-12-29T07:29:47;14.73;;;6.90;;
11964;SDS011;6042;41.326;19.826;2022-12-29T07:32:17;12.43;;;6.13;;
11964;SDS011;6042;41.326;19.826;2022-12-29T07:34:46;7.97;;;5.60;;
11964;SDS011;6042;41.326;19.826;2022-12-29T07:37:14;15.37;;;6.60;;
11964;SDS011;6042;41.326;19.826;2022-12-29T07:39:44;14.03;;;6.77;;
11964;SDS011;6042;41.326;19.826;2022-12-29T07:42:12;13.63;;;6.80;;
11964;SDS011;6042;41.326;19.826;2022-12-29T07:44:49;15.83;;;6.93;;
11964;SDS011;6042;41.326;19.826;2022-12-29T07:47:26;14.77;;;8.00;;
11964;SDS011;6042;41.326;19.826;2022-12-29T07:49:55;13.37;;;8.10;;
11964;SDS011;6042;41.326;19.826;2022-12-29T07:52:23;14.47;;;9.67;;
11964;SDS011;6042;41.326;19.826;2022-12-29T07:54:52;16.13;;;9.97;;
11964;SDS011;6042;41.326;19.826;2022-12-29T07:57:20;13.70;;;11.20;;
11964;SDS011;6042;41.326;19.826;2022-12-29T07:59:57;19.27;;;11.20;;
11964;SDS011;6042;41.326;19.826;2022-12-29T08:02:27;12.37;;;10.17;;
11964;SDS011;6042;41.326;19.826;2022-12-29T08:04:56;11.40;;;8.50;;
11964;SDS011;6042;41.326;19.826;2022-12-29T08:07:24;10.47;;;8.97;;
11964;SDS011;6042;41.326;19.826;2022-12-29T08:09:54;17.47;;;10.40;;
11964;SDS011;6042;41.326;19.826;2022-12-29T08:12:23;16.20;;;11.77;;
11964;SDS011;6042;41.326;19.826;2022-12-29T08:14:51;17.37;;;9.30;;
11964;SDS011;6042;41.326;19.826;2022-12-29T08:17:20;15.03;;;8.67;;
11964;SDS011;6042;41.326;19.826;2022-12-29T08:19:51;13.77;;;7.93;;
11964;SDS011;6042;41.326;19.826;2022-12-29T08:22:19;10.13;;;7.97;;
11964;SDS011;6042;41.326;19.826;2022-12-29T08:24:48;12.40;;;7.90;;
11964;SDS011;6042;41.326;19.826;2022-12-29T08:27:16;11.90;;;8.00;;
11964;SDS011;6042;41.326;19.826;2022-12-29T08:29:46;8.33;;;7.33;;
11964;SDS011;6042;41.326;19.826;2022-12-29T08:32:15;9.97;;;8.07;;
11964;SDS011;6042;41.326;19.826;2022-12-29T08:34:44;14.90;;;8.17;;
11964;SDS011;6042;41.326;19.826;2022-12-29T08:37:14;19.90;;;8.97;;
11964;SDS011;6042;41.326;19.826;2022-12-29T08:39:43;14.07;;;7.90;;
11964;SDS011;6042;41.326;19.826;2022-12-29T08:42:11;18.27;;;8.40;;
11964;SDS011;6042;41.326;19.826;2022-12-29T08:44:39;19.90;;;8.97;;
11964;SDS011;6042;41.326;19.826;2022-12-29T08:47:09;14.57;;;7.77;;
11964;SDS011;6042;41.326;19.826;2022-12-29T08:49:38;22.33;;;11.00;;
11964;SDS011;6042;41.326;19.826;2022-12-29T08:52:07;15.10;;;9.67;;
11964;SDS011;6042;41.326;19.826;2022-12-29T08:54:37;18.77;;;11.17;;
11964;SDS011;6042;41.326;19.826;2022-12-29T08:57:05;24.23;;;9.60;;
11964;SDS011;6042;41.326;19.826;2022-12-29T08:59:40;21.37;;;9.67;;
11964;SDS011;6042;41.326;19.826;2022-12-29T09:02:10;14.03;;;9.33;;
11964;SDS011;6042;41.326;19.826;2022-12-29T09:04:45;13.23;;;9.33;;
11964;SDS011;6042;41.326;19.826;2022-12-29T09:07:14;12.63;;;9.53;;
11964;SDS011;6042;41.326;19.826;2022-12-29T09:09:45;11.97;;;8.10;;
11964;SDS011;6042;41.326;19.826;2022-12-29T09:12:13;13.30;;;9.47;;
11964;SDS011;6042;41.326;19.826;2022-12-29T09:14:43;12.13;;;9.63;;
11964;SDS011;6042;41.326;19.826;2022-12-29T09:17:13;15.93;;;9.73;;
11964;SDS011;6042;41.326;19.826;2022-12-29T09:19:59;17.07;;;10.00;;
11964;SDS011;6042;41.326;19.826;2022-12-29T09:22:28;16.90;;;11.40;;
11964;SDS011;6042;41.326;19.826;2022-12-29T09:24:58;20.47;;;12.87;;
11964;SDS011;6042;41.326;19.826;2022-12-29T09:27:26;14.57;;;11.43;;
11964;SDS011;6042;41.326;19.826;2022-12-29T09:29:55;23.40;;;12.80;;
11964;SDS011;6042;41.326;19.826;2022-12-29T09:32:24;21.20;;;14.00;;
11964;SDS011;6042;41.326;19.826;2022-12-29T09:34:59;34.57;;;17.77;;
11964;SDS011;6042;41.326;19.826;2022-12-29T09:37:27;36.67;;;19.53;;
11964;SDS011;6042;41.326;19.826;2022-12-29T09:39:57;32.47;;;20.93;;
11964;SDS011;6042;41.326;19.826;2022-12-29T09:42:27;39.50;;;21.73;;
11964;SDS011;6042;41.326;19.826;2022-12-29T09:45:08;42.53;;;22.07;;
11964;SDS011;6042;41.326;19.826;2022-12-29T09:47:41;39.17;;;22.03;;
11964;SDS011;6042;41.326;19.826;2022-12-29T09:50:14;43.63;;;23.67;;
11964;SDS011;6042;41.326;19.826;2022-12-29T09:52:50;47.90;;;24.90;;
11964;SDS011;6042;41.326;19.826;2022-12-29T09:55:26;38.63;;;23.53;;
11964;SDS011;6042;41.326;19.826;2022-12-29T09:58:03;46.50;;;22.70;;
11964;SDS011;6042;41.326;19.826;2022-12-29T10:00:38;56.30;;;22.50;;
11964;SDS011;6042;41.326;19.826;2022-12-29T10:03:21;35.73;;;20.90;;
11964;SDS011;6042;41.326;19.826;2022-12-29T10:05:53;49.50;;;21.27;;
11964;SDS011;6042;41.326;19.826;2022-12-29T10:08:33;35.80;;;19.50;;
11964;SDS011;6042;41.326;19.826;2022-12-29T10:11:10;38.87;;;19.83;;
11964;SDS011;6042;41.326;19.826;2022-12-29T10:13:53;30.87;;;19.40;;
11964;SDS011;6042;41.326;19.826;2022-12-29T10:16:43;32.63;;;18.60;;
11964;SDS011;6042;41.326;19.826;2022-12-29T10:19:27;28.03;;;17.87;;
11964;SDS011;6042;41.326;19.826;2022-12-29T10:22:09;30.90;;;17.73;;
11964;SDS011;6042;41.326;19.826;2022-12-29T10:24:47;21.20;;;15.97;;
11964;SDS011;6042;41.326;19.826;2022-12-29T10:27:20;30.17;;;16.53;;
11964;SDS011;6042;41.326;19.826;2022-12-29T10:29:49;25.23;;;19.43;;
11964;SDS011;6042;41.326;19.826;2022-12-29T10:32:26;27.67;;;16.57;;
11964;SDS011;6042;41.326;19.826;2022-12-29T10:34:58;22.37;;;14.50;;
11964;SDS011;6042;41.326;19.826;2022-12-29T10:37:34;34.40;;;14.87;;
11964;SDS011;6042;41.326;19.826;2022-12-29T10:40:14;21.93;;;14.10;;
11964;SDS011;6042;41.326;19.826;2022-12-29T10:42:50;29.33;;;14.43;;
11964;SDS011;6042;41.326;19.826;2022-12-29T10:45:21;19.87;;;11.67;;
11964;SDS011;6042;41.326;19.826;2022-12-29T10:47:53;23.83;;;13.57;;
11964;SDS011;6042;41.326;19.826;2022-12-29T10:50:27;33.23;;;14.10;;
11964;SDS011;6042;41.326;19.826;2022-12-29T10:52:57;18.50;;;13.90;;
11964;SDS011;6042;41.326;19.826;2022-12-29T10:55:30;13.93;;;12.43;;
11964;SDS011;6042;41.326;19.826;2022-12-29T10:58:04;16.90;;;12.63;;
11964;SDS011;6042;41.326;19.826;2022-12-29T11:00:36;19.43;;;12.97;;
11964;SDS011;6042;41.326;19.826;2022-12-29T11:03:14;15.93;;;10.73;;
11964;SDS011;6042;41.326;19.826;2022-12-29T11:06:06;13.53;;;10.83;;
11964;SDS011;6042;41.326;19.826;2022-12-29T11:08:40;15.97;;;10.83;;
11964;SDS011;6042;41.326;19.826;2022-12-29T11:11:14;10.47;;;9.00;;
11964;SDS011;6042;41.326;19.826;2022-12-29T11:13:57;13.90;;;10.13;;
11964;SDS011;6042;41.326;19.826;2022-12-29T11:16:30;12.73;;;8.53;;
11964;SDS011;6042;41.326;19.826;2022-12-29T11:19:01;9.93;;;8.77;;
11964;SDS011;6042;41.326;19.826;2022-12-29T11:21:34;15.17;;;9.37;;
11964;SDS011;6042;41.326;19.826;2022-12-29T11:24:18;26.73;;;12.73;;
11964;SDS011;6042;41.326;19.826;2022-12-29T11:26:48;15.50;;;12.23;;
11964;SDS011;6042;41.326;19.826;2022-12-29T11:29:27;15.63;;;10.37;;
11964;SDS011;6042;41.326;19.826;2022-12-29T11:32:10;16.33;;;10.60;;
11964;SDS011;6042;41.326;19.826;2022-12-29T11:34:40;11.47;;;9.47;;
11964;SDS011;6042;41.326;19.826;2022-12-29T11:37:10;22.33;;;11.37;;
11964;SDS011;6042;41.326;19.826;2022-12-29T11:39:41;17.63;;;10.50;;
11964;SDS011;6042;41.326;19.826;2022-12-29T11:42:17;26.50;;;11.70;;
11964;SDS011;6042;41.326;19.826;2022-12-29T11:44:51;13.80;;;10.23;;
11964;SDS011;6042;41.326;19.826;2022-12-29T11:47:21;18.57;;;12.97;;
11964;SDS011;6042;41.326;19.826;2022-12-29T11:49:57;19.30;;;12.00;;
11964;SDS011;6042;41.326;19.826;2022-12-29T11:52:30;12.87;;;10.27;;
11964;SDS011;6042;41.326;19.826;2022-12-29T11:55:02;21.80;;;10.77;;
11964;SDS011;6042;41.326;19.826;2022-12-29T11:57:35;22.87;;;11.73;;
11964;SDS011;6042;41.326;19.826;2022-12-29T12:00:09;15.37;;;10.83;;
11964;SDS011;6042;41.326;19.826;2022-12-29T12:02:44;17.50;;;10.77;;
11964;SDS011;6042;41.326;19.826;2022-12-29T12:05:21;19.07;;;12.70;;
11964;SDS011;6042;41.326;19.826;2022-12-29T12:07:55;18.43;;;11.00;;
11964;SDS011;6042;41.326;19.826;2022-12-29T12:10:30;34.17;;;11.27;;
11964;SDS011;6042;41.326;19.826;2022-12-29T12:13:06;11.03;;;8.40;;
11964;SDS011;6042;41.326;19.826;2022-12-29T12:15:44;14.70;;;8.17;;
11964;SDS011;6042;41.326;19.826;2022-12-29T12:18:26;18.47;;;9.47;;
11964;SDS011;6042;41.326;19.826;2022-12-29T12:21:04;13.80;;;8.80;;
11964;SDS011;6042;41.326;19.826;2022-12-29T12:23:40;19.60;;;8.00;;
11964;SDS011;6042;41.326;19.826;2022-12-29T12:26:20;10.43;;;7.67;;
11964;SDS011;6042;41.326;19.826;2022-12-29T12:28:58;11.37;;;7.97;;
11964;SDS011;6042;41.326;19.826;2022-12-29T12:31:41;8.68;;;6.68;;
11964;SDS011;6042;41.326;19.826;2022-12-29T12:34:17;8.45;;;6.00;;
11964;SDS011;6042;41.326;19.826;2022-12-29T12:43:04;25.00;;;12.13;;
11964;SDS011;6042;41.326;19.826;2022-12-29T12:45:45;15.55;;;9.30;;
11964;SDS011;6042;41.326;19.826;2022-12-29T12:48:35;11.38;;;9.15;;
11964;SDS011;6042;41.326;19.826;2022-12-29T12:51:18;11.85;;;9.32;;
11964;SDS011;6042;41.326;19.826;2022-12-29T12:53:59;15.02;;;10.30;;
11964;SDS011;6042;41.326;19.826;2022-12-29T12:56:44;13.27;;;9.63;;
11964;SDS011;6042;41.326;19.826;2022-12-29T12:59:34;16.57;;;10.40;;
11964;SDS011;6042;41.326;19.826;2022-12-29T13:02:15;11.70;;;9.03;;
11964;SDS011;6042;41.326;19.826;2022-12-29T13:05:04;11.90;;;8.90;;
11964;SDS011;6042;41.326;19.826;2022-12-29T13:07:48;9.87;;;8.87;;
11964;SDS011;6042;41.326;19.826;2022-12-29T13:10:36;10.47;;;7.90;;
11964;SDS011;6042;41.326;19.826;2022-12-29T13:13:23;12.07;;;8.77;;
11964;SDS011;6042;41.326;19.826;2022-12-29T13:16:04;23.20;;;12.40;;
11964;SDS011;6042;41.326;19.826;2022-12-29T13:18:44;13.47;;;9.93;;
11964;SDS011;6042;41.326;19.826;2022-12-29T13:21:26;11.67;;;7.70;;
11964;SDS011;6042;41.326;19.826;2022-12-29T13:24:01;13.83;;;7.13;;
11964;SDS011;6042;41.326;19.826;2022-12-29T13:26:42;10.30;;;9.00;;
11964;SDS011;6042;41.326;19.826;2022-12-29T13:29:15;15.90;;;9.27;;
11964;SDS011;6042;41.326;19.826;2022-12-29T13:31:50;19.63;;;10.57;;
11964;SDS011;6042;41.326;19.826;2022-12-29T13:34:28;15.93;;;9.23;;
11964;SDS011;6042;41.326;19.826;2022-12-29T13:37:08;23.27;;;12.10;;
11964;SDS011;6042;41.326;19.826;2022-12-29T13:39:40;29.03;;;12.17;;
11964;SDS011;6042;41.326;19.826;2022-12-29T13:42:14;12.30;;;9.27;;
11964;SDS011;6042;41.326;19.826;2022-12-29T13:44:47;10.47;;;9.37;;
11964;SDS011;6042;41.326;19.826;2022-12-29T13:47:25;25.23;;;10.97;;
11964;SDS011;6042;41.326;19.826;2022-12-29T13:49:59;25.47;;;13.40;;
11964;SDS011;6042;41.326;19.826;2022-12-29T13:52:34;14.90;;;11.37;;
11964;SDS011;6042;41.326;19.826;2022-12-29T13:55:17;16.67;;;12.03;;
11964;SDS011;6042;41.326;19.826;2022-12-29T13:57:54;16.70;;;11.37;;
11964;SDS011;6042;41.326;19.826;2022-12-29T14:00:31;15.33;;;12.23;;
11964;SDS011;6042;41.326;19.826;2022-12-29T14:03:17;16.90;;;12.00;;
11964;SDS011;6042;41.326;19.826;2022-12-29T14:06:04;17.07;;;11.27;;
11964;SDS011;6042;41.326;19.826;2022-12-29T14:08:43;17.93;;;12.37;;
11964;SDS011;6042;41.326;19.826;2022-12-29T14:11:17;16.37;;;11.37;;
11964;SDS011;6042;41.326;19.826;2022-12-29T14:13:48;19.13;;;10.90;;
11964;SDS011;6042;41.326;19.826;2022-12-29T14:16:27;24.83;;;14.70;;
11964;SDS011;6042;41.326;19.826;2022-12-29T14:19:05;24.43;;;12.47;;
11964;SDS011;6042;41.326;19.826;2022-12-29T14:21:52;16.57;;;10.37;;
11964;SDS011;6042;41.326;19.826;2022-12-29T14:24:38;28.17;;;12.53;;
11964;SDS011;6042;41.326;19.826;2022-12-29T14:33:16;17.17;;;11.40;;
11964;SDS011;6042;41.326;19.826;2022-12-29T14:35:46;19.27;;;11.30;;
11964;SDS011;6042;41.326;19.826;2022-12-29T14:38:20;19.57;;;12.43;;
11964;SDS011;6042;41.326;19.826;2022-12-29T14:41:17;18.70;;;13.00;;
11964;SDS011;6042;41.326;19.826;2022-12-29T14:44:01;25.33;;;14.13;;
11964;SDS011;6042;41.326;19.826;2022-12-29T14:46:43;23.93;;;15.57;;
11964;SDS011;6042;41.326;19.826;2022-12-29T14:49:16;23.73;;;15.90;;
11964;SDS011;6042;41.326;19.826;2022-12-29T14:51:48;27.97;;;17.60;;
11964;SDS011;6042;41.326;19.826;2022-12-29T14:57:24;29.97;;;20.03;;
11964;SDS011;6042;41.326;19.826;2022-12-29T14:59:58;37.33;;;20.63;;
11964;SDS011;6042;41.326;19.826;2022-12-29T15:02:35;30.00;;;21.03;;
11964;SDS011;6042;41.326;19.826;2022-12-29T15:05:20;27.60;;;20.07;;
11964;SDS011;6042;41.326;19.826;2022-12-29T15:07:55;28.57;;;20.63;;
11964;SDS011;6042;41.326;19.826;2022-12-29T15:10:25;40.07;;;24.40;;
11964;SDS011;6042;41.326;19.826;2022-12-29T15:13:02;36.27;;;25.70;;
11964;SDS011;6042;41.326;19.826;2022-12-29T15:15:36;37.37;;;22.97;;
11964;SDS011;6042;41.326;19.826;2022-12-29T15:18:12;37.20;;;25.03;;
11964;SDS011;6042;41.326;19.826;2022-12-29T15:20:50;38.20;;;25.33;;
11964;SDS011;6042;41.326;19.826;2022-12-29T15:23:21;41.23;;;25.00;;
11964;SDS011;6042;41.326;19.826;2022-12-29T15:25:53;39.60;;;26.60;;
11964;SDS011;6042;41.326;19.826;2022-12-29T15:28:25;36.80;;;26.97;;
11964;SDS011;6042;41.326;19.826;2022-12-29T15:30:56;45.30;;;27.67;;
11964;SDS011;6042;41.326;19.826;2022-12-29T15:33:31;46.50;;;28.10;;
11964;SDS011;6042;41.326;19.826;2022-12-29T15:36:09;52.93;;;28.40;;
11964;SDS011;6042;41.326;19.826;2022-12-29T15:38:39;38.83;;;26.87;;